Terminal Aerodrome Forecast
Issued by NWS Shreveport, LA

Home | Current Version | Previous Version | Text Only | Print | Product List | Glossary On
Versions: 1 2 3 4 5 6 7 8 9 10 11 12 13 14 15 16
000
FTUS44 KSHV 201300 AAA
TAFTYR
TAF AMD
KTYR 201346Z 2014/2112 04004KT 5SM BR OVC003
     FM201600 06005KT 6SM BR BKN007 OVC015
     FM201800 08005KT P6SM SCT009 OVC015
     FM202100 07005KT P6SM BKN020
     FM210400 11003KT P6SM OVC015
     FM210800 13004KT 4SM BR OVC007=

USA.gov is the U.S. government's official web portal to all federal, state and local government web resources and services.